sensor_id;sensor_type;location;lat;lon;timestamp;pressure;altitude;pressure_sealevel;temperature;humidity
74678;BME280;63207;56.328;43.994;2022-10-31T00:02:12;98277.66;;;21.15;46.99
74678;BME280;63207;56.328;43.994;2022-10-31T00:04:37;98286.16;;;21.17;46.81
74678;BME280;63207;56.328;43.994;2022-10-31T00:07:03;98280.09;;;21.17;46.91
74678;BME280;63207;56.328;43.994;2022-10-31T00:09:29;98284.53;;;21.16;47.00
74678;BME280;63207;56.328;43.994;2022-10-31T00:11:55;98279.25;;;21.16;46.89
74678;BME280;63207;56.328;43.994;2022-10-31T00:14:21;98292.41;;;21.16;46.80
74678;BME280;63207;56.328;43.994;2022-10-31T00:16:46;98294.03;;;21.17;46.83
74678;BME280;63207;56.328;43.994;2022-10-31T00:19:12;98289.78;;;21.16;46.82
74678;BME280;63207;56.328;43.994;2022-10-31T00:21:38;98291.59;;;21.16;46.92
74678;BME280;63207;56.328;43.994;2022-10-31T00:24:04;98296.06;;;21.15;46.93
74678;BME280;63207;56.328;43.994;2022-10-31T00:26:31;98293.44;;;21.15;46.83
74678;BME280;63207;56.328;43.994;2022-10-31T00:28:58;98302.13;;;21.16;46.91
74678;BME280;63207;56.328;43.994;2022-10-31T00:31:25;98288.38;;;21.14;46.99
74678;BME280;63207;56.328;43.994;2022-10-31T00:33:51;98292.81;;;21.13;46.92
74678;BME280;63207;56.328;43.994;2022-10-31T00:36:19;98288.59;;;21.12;46.87
74678;BME280;63207;56.328;43.994;2022-10-31T00:38:46;98294.25;;;21.16;46.98
74678;BME280;63207;56.328;43.994;2022-10-31T00:41:14;98286.78;;;21.13;46.92
74678;BME280;63207;56.328;43.994;2022-10-31T00:43:41;98299.13;;;21.12;46.89
74678;BME280;63207;56.328;43.994;2022-10-31T00:46:08;98294.66;;;21.13;46.95
74678;BME280;63207;56.328;43.994;2022-10-31T00:48:34;98299.91;;;21.13;46.86
74678;BME280;63207;56.328;43.994;2022-10-31T00:51:00;98308.59;;;21.13;46.97
74678;BME280;63207;56.328;43.994;2022-10-31T00:53:26;98303.53;;;21.12;46.93
74678;BME280;63207;56.328;43.994;2022-10-31T00:56:10;98307.00;;;21.12;46.97
74678;BME280;63207;56.328;43.994;2022-10-31T00:58:36;98315.69;;;21.13;47.03
74678;BME280;63207;56.328;43.994;2022-10-31T01:01:03;98307.81;;;21.13;46.93
74678;BME280;63207;56.328;43.994;2022-10-31T01:03:31;98313.84;;;21.13;46.90
74678;BME280;63207;56.328;43.994;2022-10-31T01:06:07;98312.25;;;21.12;47.05
74678;BME280;63207;56.328;43.994;2022-10-31T01:08:52;98310.84;;;21.10;46.98
74678;BME280;63207;56.328;43.994;2022-10-31T01:11:22;98321.94;;;21.12;46.85
74678;BME280;63207;56.328;43.994;2022-10-31T01:13:51;98321.13;;;21.11;46.95
74678;BME280;63207;56.328;43.994;2022-10-31T01:16:19;98322.16;;;21.10;46.90
74678;BME280;63207;56.328;43.994;2022-10-31T01:18:46;98323.78;;;21.11;46.93
74678;BME280;63207;56.328;43.994;2022-10-31T01:21:18;98319.53;;;21.10;46.99
74678;BME280;63207;56.328;43.994;2022-10-31T01:23:44;98326.41;;;21.11;46.83
74678;BME280;63207;56.328;43.994;2022-10-31T01:26:20;98330.06;;;21.10;46.85
74678;BME280;63207;56.328;43.994;2022-10-31T01:28:55;98332.44;;;21.12;46.84
74678;BME280;63207;56.328;43.994;2022-10-31T01:31:24;98333.69;;;21.09;46.92
74678;BME280;63207;56.328;43.994;2022-10-31T01:33:50;98339.75;;;21.10;46.99
74678;BME280;63207;56.328;43.994;2022-10-31T01:36:26;98330.84;;;21.11;46.95
74678;BME280;63207;56.328;43.994;2022-10-31T01:38:55;98342.38;;;21.10;46.93
74678;BME280;63207;56.328;43.994;2022-10-31T01:41:24;98345.81;;;21.10;46.96
74678;BME280;63207;56.328;43.994;2022-10-31T01:43:56;98337.13;;;21.10;46.93
74678;BME280;63207;56.328;43.994;2022-10-31T01:46:30;98347.66;;;21.10;46.93
74678;BME280;63207;56.328;43.994;2022-10-31T01:48:59;98338.13;;;21.08;46.96
74678;BME280;63207;56.328;43.994;2022-10-31T01:51:29;98351.06;;;21.10;46.93
74678;BME280;63207;56.328;43.994;2022-10-31T01:54:00;98352.91;;;21.10;46.96
74678;BME280;63207;56.328;43.994;2022-10-31T01:56:27;98351.28;;;21.08;46.86
74678;BME280;63207;56.328;43.994;2022-10-31T01:58:54;98359.97;;;21.09;46.90
74678;BME280;63207;56.328;43.994;2022-10-31T02:01:22;98355.53;;;21.10;46.85
74678;BME280;63207;56.328;43.994;2022-10-31T02:03:49;98353.91;;;21.08;46.89
74678;BME280;63207;56.328;43.994;2022-10-31T02:06:26;98363.44;;;21.10;46.99
74678;BME280;63207;56.328;43.994;2022-10-31T02:08:53;98363.63;;;21.08;46.97
74678;BME280;63207;56.328;43.994;2022-10-31T02:11:20;98365.22;;;21.09;46.88
74678;BME280;63207;56.328;43.994;2022-10-31T02:13:47;98355.72;;;21.08;46.82
74678;BME280;63207;56.328;43.994;2022-10-31T02:16:33;98362.00;;;21.07;46.86
74678;BME280;63207;56.328;43.994;2022-10-31T02:18:59;98364.63;;;21.07;47.00
74678;BME280;63207;56.328;43.994;2022-10-31T02:21:52;98374.94;;;21.08;46.96
74678;BME280;63207;56.328;43.994;2022-10-31T02:27:14;98372.53;;;21.07;46.89
74678;BME280;63207;56.328;43.994;2022-10-31T02:30:03;98371.69;;;21.06;46.91
74678;BME280;63207;56.328;43.994;2022-10-31T02:46:39;98388.31;;;21.07;46.95
74678;BME280;63207;56.328;43.994;2022-10-31T02:49:18;98389.50;;;21.04;47.00
74678;BME280;63207;56.328;43.994;2022-10-31T02:51:48;98392.72;;;21.06;46.83
74678;BME280;63207;56.328;43.994;2022-10-31T02:54:19;98399.00;;;21.05;46.87
74678;BME280;63207;56.328;43.994;2022-10-31T02:56:53;98399.00;;;21.05;47.01
74678;BME280;63207;56.328;43.994;2022-10-31T02:59:21;98402.66;;;21.04;46.94
74678;BME280;63207;56.328;43.994;2022-10-31T03:10:35;98416.78;;;21.03;46.97
74678;BME280;63207;56.328;43.994;2022-10-31T03:15:59;98414.97;;;21.04;46.97
74678;BME280;63207;56.328;43.994;2022-10-31T03:18:33;98407.09;;;21.04;46.90
74678;BME280;63207;56.328;43.994;2022-10-31T03:21:25;98405.28;;;21.04;46.89
74678;BME280;63207;56.328;43.994;2022-10-31T03:23:53;98410.72;;;21.03;47.02
74678;BME280;63207;56.328;43.994;2022-10-31T03:26:21;98408.91;;;21.03;46.90
74678;BME280;63207;56.328;43.994;2022-10-31T03:28:56;98417.81;;;21.02;46.97
74678;BME280;63207;56.328;43.994;2022-10-31T03:31:26;98413.38;;;21.03;46.99
74678;BME280;63207;56.328;43.994;2022-10-31T03:33:56;98424.69;;;21.03;46.91
74678;BME280;63207;56.328;43.994;2022-10-31T03:36:43;98422.06;;;21.03;46.92
74678;BME280;63207;56.328;43.994;2022-10-31T03:39:13;98422.84;;;21.04;46.96
74678;BME280;63207;56.328;43.994;2022-10-31T03:41:43;98419.41;;;21.03;46.96
74678;BME280;63207;56.328;43.994;2022-10-31T03:44:16;98420.44;;;21.02;46.85
74678;BME280;63207;56.328;43.994;2022-10-31T03:46:47;98428.13;;;21.04;46.92
74678;BME280;63207;56.328;43.994;2022-10-31T03:49:14;98430.16;;;21.02;46.95
74678;BME280;63207;56.328;43.994;2022-10-31T03:51:48;98431.56;;;21.04;46.92
74678;BME280;63207;56.328;43.994;2022-10-31T03:54:42;98437.81;;;21.03;47.01
74678;BME280;63207;56.328;43.994;2022-10-31T03:57:27;98438.63;;;21.04;46.94
74678;BME280;63207;56.328;43.994;2022-10-31T04:02:32;98442.28;;;21.03;46.94
74678;BME280;63207;56.328;43.994;2022-10-31T04:05:00;98445.72;;;21.03;46.91
74678;BME280;63207;56.328;43.994;2022-10-31T04:07:33;98450.97;;;21.03;46.79
74678;BME280;63207;56.328;43.994;2022-10-31T04:10:02;98446.50;;;21.04;46.92
74678;BME280;63207;56.328;43.994;2022-10-31T04:12:31;98438.84;;;21.02;47.01
74678;BME280;63207;56.328;43.994;2022-10-31T04:15:19;98446.13;;;21.00;46.94
74678;BME280;63207;56.328;43.994;2022-10-31T04:17:47;98450.16;;;21.03;46.95
74678;BME280;63207;56.328;43.994;2022-10-31T04:20:18;98450.34;;;21.01;46.92
74678;BME280;63207;56.328;43.994;2022-10-31T04:22:44;98453.81;;;21.02;46.84
74678;BME280;63207;56.328;43.994;2022-10-31T04:25:10;98455.59;;;21.01;46.94
74678;BME280;63207;56.328;43.994;2022-10-31T04:27:38;98459.88;;;21.02;46.83
74678;BME280;63207;56.328;43.994;2022-10-31T04:30:06;98465.13;;;21.02;46.88
74678;BME280;63207;56.328;43.994;2022-10-31T04:32:35;98460.69;;;21.03;46.93
74678;BME280;63207;56.328;43.994;2022-10-31T04:35:19;98469.59;;;21.02;46.89
74678;BME280;63207;56.328;43.994;2022-10-31T04:37:45;98472.22;;;21.02;46.85
74678;BME280;63207;56.328;43.994;2022-10-31T04:40:12;98475.44;;;21.04;46.75
74678;BME280;63207;56.328;43.994;2022-10-31T04:42:56;98477.47;;;21.02;46.95
74678;BME280;63207;56.328;43.994;2022-10-31T04:45:22;98479.88;;;21.03;46.84
74678;BME280;63207;56.328;43.994;2022-10-31T04:47:51;98482.72;;;21.02;46.85
74678;BME280;63207;56.328;43.994;2022-10-31T04:50:17;98485.34;;;21.02;46.89
74678;BME280;63207;56.328;43.994;2022-10-31T04:52:45;98490.41;;;21.03;46.84
74678;BME280;63207;56.328;43.994;2022-10-31T04:55:15;98491.41;;;21.02;46.86
74678;BME280;63207;56.328;43.994;2022-10-31T04:57:48;98496.66;;;21.02;46.83
74678;BME280;63207;56.328;43.994;2022-10-31T05:00:18;98493.81;;;21.04;46.92
74678;BME280;63207;56.328;43.994;2022-10-31T05:02:49;98495.03;;;21.01;46.89
74678;BME280;63207;56.328;43.994;2022-10-31T05:05:16;98506.38;;;21.02;46.87
74678;BME280;63207;56.328;43.994;2022-10-31T05:07:44;98508.78;;;21.03;46.87
74678;BME280;63207;56.328;43.994;2022-10-31T05:10:14;98504.56;;;21.02;46.84
74678;BME280;63207;56.328;43.994;2022-10-31T05:12:51;98505.56;;;21.01;46.85
74678;BME280;63207;56.328;43.994;2022-10-31T05:15:35;98515.25;;;21.01;46.86
74678;BME280;63207;56.328;43.994;2022-10-31T05:18:21;98519.72;;;21.00;46.76
74678;BME280;63207;56.328;43.994;2022-10-31T05:21:06;98526.56;;;21.01;46.79
74678;BME280;63207;56.328;43.994;2022-10-31T05:23:50;98521.31;;;21.01;46.67
74678;BME280;63207;56.328;43.994;2022-10-31T05:26:19;98525.78;;;21.01;46.91
74678;BME280;63207;56.328;43.994;2022-10-31T05:28:46;98524.97;;;21.00;46.83
74678;BME280;63207;56.328;43.994;2022-10-31T05:31:12;98530.03;;;21.02;46.84
74678;BME280;63207;56.328;43.994;2022-10-31T05:33:56;98539.72;;;21.01;46.85
74678;BME280;63207;56.328;43.994;2022-10-31T05:36:41;98536.50;;;20.99;46.85
74678;BME280;63207;56.328;43.994;2022-10-31T05:39:25;98546.00;;;21.00;46.88
74678;BME280;63207;56.328;43.994;2022-10-31T05:41:55;98540.75;;;21.00;46.76
74678;BME280;63207;56.328;43.994;2022-10-31T05:44:25;98555.72;;;21.00;46.76
74678;BME280;63207;56.328;43.994;2022-10-31T05:47:14;98552.06;;;21.01;46.76
74678;BME280;63207;56.328;43.994;2022-10-31T05:50:15;98562.56;;;21.01;46.74
74678;BME280;63207;56.328;43.994;2022-10-31T05:53:02;98570.69;;;20.99;46.80
74678;BME280;63207;56.328;43.994;2022-10-31T05:55:33;98571.47;;;21.00;46.93
74678;BME280;63207;56.328;43.994;2022-10-31T05:58:19;98582.97;;;20.99;46.83
74678;BME280;63207;56.328;43.994;2022-10-31T06:00:52;98588.06;;;21.00;47.01
74678;BME280;63207;56.328;43.994;2022-10-31T06:03:36;98586.03;;;21.02;47.33
74678;BME280;63207;56.328;43.994;2022-10-31T06:06:05;98586.25;;;21.07;47.38
74678;BME280;63207;56.328;43.994;2022-10-31T06:08:35;98592.13;;;21.10;47.52
74678;BME280;63207;56.328;43.994;2022-10-31T06:11:05;98593.56;;;21.12;49.21
74678;BME280;63207;56.328;43.994;2022-10-31T06:14:03;98591.91;;;21.11;50.90
74678;BME280;63207;56.328;43.994;2022-10-31T06:16:46;98598.38;;;21.08;51.77
74678;BME280;63207;56.328;43.994;2022-10-31T06:19:30;98598.59;;;21.07;52.10
74678;BME280;63207;56.328;43.994;2022-10-31T06:21:57;98592.72;;;21.05;52.53
74678;BME280;63207;56.328;43.994;2022-10-31T06:24:23;98605.25;;;21.03;52.43
74678;BME280;63207;56.328;43.994;2022-10-31T06:26:52;98603.44;;;21.03;52.20
74678;BME280;63207;56.328;43.994;2022-10-31T06:29:18;98606.28;;;21.02;52.09
74678;BME280;63207;56.328;43.994;2022-10-31T06:32:05;98609.69;;;21.02;52.34
74678;BME280;63207;56.328;43.994;2022-10-31T06:34:36;98607.25;;;21.01;52.12
74678;BME280;63207;56.328;43.994;2022-10-31T06:37:02;98612.34;;;21.02;52.14
74678;BME280;63207;56.328;43.994;2022-10-31T06:39:29;98626.69;;;21.00;51.91
74678;BME280;63207;56.328;43.994;2022-10-31T06:41:55;98616.97;;;21.00;51.89
74678;BME280;63207;56.328;43.994;2022-10-31T06:44:22;98621.22;;;21.01;51.59
74678;BME280;63207;56.328;43.994;2022-10-31T06:46:54;98624.84;;;21.00;51.50
74678;BME280;63207;56.328;43.994;2022-10-31T06:49:39;98623.25;;;20.99;51.39
74678;BME280;63207;56.328;43.994;2022-10-31T06:52:10;98626.69;;;21.00;51.22
74678;BME280;63207;56.328;43.994;2022-10-31T06:54:36;98625.66;;;21.01;51.18
74678;BME280;63207;56.328;43.994;2022-10-31T06:57:03;98632.13;;;20.98;51.08
74678;BME280;63207;56.328;43.994;2022-10-31T06:59:29;98637.19;;;21.00;51.11
74678;BME280;63207;56.328;43.994;2022-10-31T07:02:08;98631.72;;;21.01;50.95
74678;BME280;63207;56.328;43.994;2022-10-31T07:04:34;98629.09;;;21.01;50.97
74678;BME280;63207;56.328;43.994;2022-10-31T07:07:00;98624.84;;;21.00;50.84
74678;BME280;63207;56.328;43.994;2022-10-31T07:09:26;98638.00;;;21.00;50.65
74678;BME280;63207;56.328;43.994;2022-10-31T07:11:53;98647.50;;;21.01;50.78
74678;BME280;63207;56.328;43.994;2022-10-31T07:14:19;98643.25;;;21.00;50.62
74678;BME280;63207;56.328;43.994;2022-10-31T07:16:50;98649.53;;;20.99;50.53
74678;BME280;63207;56.328;43.994;2022-10-31T07:19:35;98647.50;;;21.01;50.58
74678;BME280;63207;56.328;43.994;2022-10-31T07:22:01;98652.16;;;20.99;50.54
74678;BME280;63207;56.328;43.994;2022-10-31T07:24:28;98656.41;;;21.00;50.46
74678;BME280;63207;56.328;43.994;2022-10-31T07:27:14;98652.75;;;21.01;50.51
74678;BME280;63207;56.328;43.994;2022-10-31T07:29:42;98653.78;;;21.00;50.50
74678;BME280;63207;56.328;43.994;2022-10-31T07:32:08;98653.78;;;21.00;50.22
74678;BME280;63207;56.328;43.994;2022-10-31T07:34:38;98653.97;;;20.99;50.30
74678;BME280;63207;56.328;43.994;2022-10-31T07:37:27;98660.06;;;20.99;50.22
74678;BME280;63207;56.328;43.994;2022-10-31T07:39:54;98669.53;;;21.00;50.21
74678;BME280;63207;56.328;43.994;2022-10-31T07:42:19;98662.47;;;21.01;50.27
74678;BME280;63207;56.328;43.994;2022-10-31T07:44:45;98668.53;;;21.01;50.18
74678;BME280;63207;56.328;43.994;2022-10-31T07:47:30;98671.56;;;20.98;49.99
74678;BME280;63207;56.328;43.994;2022-10-31T07:50:17;98670.56;;;20.99;49.93
74678;BME280;63207;56.328;43.994;2022-10-31T07:53:09;98676.81;;;20.98;49.97
74678;BME280;63207;56.328;43.994;2022-10-31T07:55:49;98680.25;;;20.99;50.06
74678;BME280;63207;56.328;43.994;2022-10-31T07:58:16;98686.34;;;20.99;50.05
74678;BME280;63207;56.328;43.994;2022-10-31T08:00:44;98688.13;;;20.99;49.82
74678;BME280;63207;56.328;43.994;2022-10-31T08:03:16;98688.13;;;20.99;49.94
74678;BME280;63207;56.328;43.994;2022-10-31T08:06:02;98683.88;;;20.98;49.85
74678;BME280;63207;56.328;43.994;2022-10-31T08:08:48;98677.59;;;20.99;49.84
74678;BME280;63207;56.328;43.994;2022-10-31T08:11:14;98686.34;;;20.99;49.87
74678;BME280;63207;56.328;43.994;2022-10-31T08:13:42;98694.22;;;20.99;49.79
74678;BME280;63207;56.328;43.994;2022-10-31T08:16:09;98699.66;;;20.98;49.70
74678;BME280;63207;56.328;43.994;2022-10-31T08:18:42;98705.53;;;21.00;49.64
74678;BME280;63207;56.328;43.994;2022-10-31T08:21:11;98701.09;;;21.00;49.66
74678;BME280;63207;56.328;43.994;2022-10-31T08:23:56;98718.69;;;21.00;49.74
74678;BME280;63207;56.328;43.994;2022-10-31T08:26:23;98716.06;;;21.00;49.68
74678;BME280;63207;56.328;43.994;2022-10-31T08:28:51;98719.47;;;21.00;49.60
74678;BME280;63207;56.328;43.994;2022-10-31T08:31:21;98727.38;;;21.00;49.54
74678;BME280;63207;56.328;43.994;2022-10-31T08:34:09;98717.88;;;20.99;49.47
74678;BME280;63207;56.328;43.994;2022-10-31T08:36:54;98738.28;;;20.97;49.47
74678;BME280;63207;56.328;43.994;2022-10-31T08:39:26;98727.56;;;20.99;49.47
74678;BME280;63207;56.328;43.994;2022-10-31T08:41:52;98718.25;;;20.96;49.45
74678;BME280;63207;56.328;43.994;2022-10-31T08:44:18;98731.19;;;20.98;49.58
74678;BME280;63207;56.328;43.994;2022-10-31T08:46:44;98733.84;;;20.98;49.52
74678;BME280;63207;56.328;43.994;2022-10-31T08:49:10;98736.28;;;20.99;49.33
74678;BME280;63207;56.328;43.994;2022-10-31T08:51:37;98740.69;;;20.99;49.34
74678;BME280;63207;56.328;43.994;2022-10-31T08:54:22;98736.63;;;20.96;49.31
74678;BME280;63207;56.328;43.994;2022-10-31T08:56:54;98740.91;;;20.97;49.40
74678;BME280;63207;56.328;43.994;2022-10-31T08:59:39;98738.28;;;20.97;49.30
74678;BME280;63207;56.328;43.994;2022-10-31T09:02:14;98749.78;;;20.96;49.28
74678;BME280;63207;56.328;43.994;2022-10-31T09:04:40;98758.28;;;20.98;49.29
74678;BME280;63207;56.328;43.994;2022-10-31T09:07:06;98749.59;;;20.98;49.20
74678;BME280;63207;56.328;43.994;2022-10-31T09:09:32;98760.13;;;20.98;49.23
74678;BME280;63207;56.328;43.994;2022-10-31T09:11:57;98760.31;;;20.96;49.18
74678;BME280;63207;56.328;43.994;2022-10-31T09:14:43;98769.63;;;20.99;49.14
74678;BME280;63207;56.328;43.994;2022-10-31T09:17:46;98771.44;;;20.98;49.17
74678;BME280;63207;56.328;43.994;2022-10-31T09:20:36;98770.63;;;20.98;49.21
74678;BME280;63207;56.328;43.994;2022-10-31T09:23:07;98762.94;;;20.96;49.02
74678;BME280;63207;56.328;43.994;2022-10-31T09:25:37;98764.56;;;20.97;49.12
74678;BME280;63207;56.328;43.994;2022-10-31T09:28:22;98777.50;;;20.99;49.05
74678;BME280;63207;56.328;43.994;2022-10-31T09:30:51;98776.69;;;20.98;49.02
74678;BME280;63207;56.328;43.994;2022-10-31T09:33:37;98763.75;;;20.97;48.98
74678;BME280;63207;56.328;43.994;2022-10-31T09:36:38;98776.91;;;20.97;48.96
74678;BME280;63207;56.328;43.994;2022-10-31T09:39:07;98792.47;;;20.98;48.97
74678;BME280;63207;56.328;43.994;2022-10-31T09:44:50;98788.22;;;20.97;48.85
74678;BME280;63207;56.328;43.994;2022-10-31T09:50:36;98793.47;;;20.97;48.91
74678;BME280;63207;56.328;43.994;2022-10-31T09:53:46;98811.06;;;20.97;48.78
74678;BME280;63207;56.328;43.994;2022-10-31T09:56:20;98808.44;;;20.97;48.80
74678;BME280;63207;56.328;43.994;2022-10-31T09:58:56;98804.00;;;20.97;48.70
74678;BME280;63207;56.328;43.994;2022-10-31T10:01:44;98808.44;;;20.97;48.78
74678;BME280;63207;56.328;43.994;2022-10-31T10:32:58;98833.28;;;20.94;48.65
74678;BME280;63207;56.328;43.994;2022-10-31T10:36:01;98831.66;;;20.93;48.50
74678;BME280;63207;56.328;43.994;2022-10-31T10:41:22;98839.38;;;20.95;48.59
74678;BME280;63207;56.328;43.994;2022-10-31T10:43:51;98844.00;;;20.93;48.57
74678;BME280;63207;56.328;43.994;2022-10-31T11:02:57;98837.94;;;20.92;48.51
74678;BME280;63207;56.328;43.994;2022-10-31T11:07:58;98851.88;;;20.93;48.36
74678;BME280;63207;56.328;43.994;2022-10-31T11:10:24;98847.44;;;20.93;48.38
74678;BME280;63207;56.328;43.994;2022-10-31T11:13:05;98854.69;;;20.91;48.26
74678;BME280;63207;56.328;43.994;2022-10-31T11:15:49;98846.63;;;20.93;48.31
74678;BME280;63207;56.328;43.994;2022-10-31T11:18:39;98848.44;;;20.92;48.38
74678;BME280;63207;56.328;43.994;2022-10-31T11:21:05;98851.06;;;20.92;48.34
74678;BME280;63207;56.328;43.994;2022-10-31T11:23:32;98850.22;;;20.92;48.33
74678;BME280;63207;56.328;43.994;2022-10-31T11:26:19;98848.44;;;20.92;48.24
74678;BME280;63207;56.328;43.994;2022-10-31T11:28:56;98847.00;;;20.90;48.27
74678;BME280;63207;56.328;43.994;2022-10-31T11:31:23;98854.91;;;20.90;48.17
74678;BME280;63207;56.328;43.994;2022-10-31T11:33:58;98858.34;;;20.90;48.22
74678;BME280;63207;56.328;43.994;2022-10-31T11:36:30;98872.28;;;20.91;48.21
74678;BME280;63207;56.328;43.994;2022-10-31T11:39:22;98866.22;;;20.90;48.08
74678;BME280;63207;56.328;43.994;2022-10-31T11:41:50;98867.81;;;20.91;48.17
74678;BME280;63207;56.328;43.994;2022-10-31T11:44:35;98870.66;;;20.90;48.16
74678;BME280;63207;56.328;43.994;2022-10-31T11:47:04;98874.28;;;20.89;48.21
74678;BME280;63207;56.328;43.994;2022-10-31T11:49:42;98875.09;;;20.89;48.18
74678;BME280;63207;56.328;43.994;2022-10-31T11:52:27;98878.56;;;20.90;48.14
74678;BME280;63207;56.328;43.994;2022-10-31T11:57:42;98871.84;;;20.87;48.23
74678;BME280;63207;56.328;43.994;2022-10-31T12:06:07;98864.97;;;20.86;48.08
74678;BME280;63207;56.328;43.994;2022-10-31T12:08:38;98870.03;;;20.88;48.24
74678;BME280;63207;56.328;43.994;2022-10-31T12:22:08;98884.38;;;20.85;48.12
74678;BME280;63207;56.328;43.994;2022-10-31T12:32:23;98879.13;;;20.85;47.92
74678;BME280;63207;56.328;43.994;2022-10-31T12:37:57;98888.63;;;20.86;48.04
74678;BME280;63207;56.328;43.994;2022-10-31T12:40:53;98894.88;;;20.85;47.94
74678;BME280;63207;56.328;43.994;2022-10-31T12:44:17;98888.00;;;20.84;47.92
74678;BME280;63207;56.328;43.994;2022-10-31T12:49:52;98895.06;;;20.83;47.85
74678;BME280;63207;56.328;43.994;2022-10-31T12:52:39;98902.13;;;20.83;47.84
74678;BME280;63207;56.328;43.994;2022-10-31T12:55:21;98883.28;;;20.79;47.85
74678;BME280;63207;56.328;43.994;2022-10-31T12:57:56;98895.88;;;20.84;47.92
74678;BME280;63207;56.328;43.994;2022-10-31T13:00:24;98890.81;;;20.82;47.82
74678;BME280;63207;56.328;43.994;2022-10-31T13:02:58;98893.25;;;20.84;47.94
74678;BME280;63207;56.328;43.994;2022-10-31T13:05:33;98896.88;;;20.83;47.75
74678;BME280;63207;56.328;43.994;2022-10-31T13:10:43;98903.75;;;20.84;47.91
74678;BME280;63207;56.328;43.994;2022-10-31T13:16:30;98893.81;;;20.79;47.74
74678;BME280;63207;56.328;43.994;2022-10-31T13:19:10;98897.69;;;20.83;47.74
74678;BME280;63207;56.328;43.994;2022-10-31T13:21:47;98900.31;;;20.83;47.99
74678;BME280;63207;56.328;43.994;2022-10-31T13:24:19;98902.31;;;20.81;47.82
74678;BME280;63207;56.328;43.994;2022-10-31T13:26:50;98899.50;;;20.83;47.75
74678;BME280;63207;56.328;43.994;2022-10-31T13:31:43;98898.72;;;20.82;47.88
74678;BME280;63207;56.328;43.994;2022-10-31T13:34:36;98898.72;;;20.82;47.77
74678;BME280;63207;56.328;43.994;2022-10-31T13:37:10;98912.66;;;20.83;47.83
74678;BME280;63207;56.328;43.994;2022-10-31T13:42:47;98905.97;;;20.80;47.69
74678;BME280;63207;56.328;43.994;2022-10-31T13:45:20;98905.78;;;20.82;47.79
74678;BME280;63207;56.328;43.994;2022-10-31T13:48:17;98912.84;;;20.81;47.84
74678;BME280;63207;56.328;43.994;2022-10-31T13:50:56;98922.53;;;20.81;47.71
74678;BME280;63207;56.328;43.994;2022-10-31T13:53:34;98908.59;;;20.80;47.80
74678;BME280;63207;56.328;43.994;2022-10-31T13:56:16;98917.28;;;20.81;47.78
74678;BME280;63207;56.328;43.994;2022-10-31T14:01:35;98922.72;;;20.79;47.66
74678;BME280;63207;56.328;43.994;2022-10-31T14:04:12;98927.97;;;20.79;47.62
74678;BME280;63207;56.328;43.994;2022-10-31T14:09:24;98934.69;;;20.82;47.79
74678;BME280;63207;56.328;43.994;2022-10-31T14:11:52;98933.03;;;20.81;47.69
74678;BME280;63207;56.328;43.994;2022-10-31T14:14:19;98936.69;;;20.80;47.59
74678;BME280;63207;56.328;43.994;2022-10-31T14:16:54;98932.41;;;20.79;47.81
74678;BME280;63207;56.328;43.994;2022-10-31T14:19:21;98937.31;;;20.82;47.57
74678;BME280;63207;56.328;43.994;2022-10-31T14:21:48;98934.88;;;20.80;47.62
74678;BME280;63207;56.328;43.994;2022-10-31T14:27:00;98942.75;;;20.80;47.69
74678;BME280;63207;56.328;43.994;2022-10-31T14:29:29;98939.94;;;20.82;47.59
74678;BME280;63207;56.328;43.994;2022-10-31T14:32:06;98930.59;;;20.79;47.66
74678;BME280;63207;56.328;43.994;2022-10-31T14:34:53;98934.88;;;20.80;47.60
74678;BME280;63207;56.328;43.994;2022-10-31T14:38:01;98934.06;;;20.80;47.58
74678;BME280;63207;56.328;43.994;2022-10-31T14:43:38;98948.19;;;20.79;47.77
74678;BME280;63207;56.328;43.994;2022-10-31T14:49:22;98946.56;;;20.78;47.61
74678;BME280;63207;56.328;43.994;2022-10-31T14:51:51;98941.31;;;20.78;47.70
74678;BME280;63207;56.328;43.994;2022-10-31T14:54:23;98944.94;;;20.77;47.70
74678;BME280;63207;56.328;43.994;2022-10-31T14:56:55;98943.31;;;20.76;47.76
74678;BME280;63207;56.328;43.994;2022-10-31T14:59:27;98950.00;;;20.78;47.71
74678;BME280;63207;56.328;43.994;2022-10-31T15:02:02;98957.09;;;20.78;47.58
74678;BME280;63207;56.328;43.994;2022-10-31T15:04:34;98941.69;;;20.75;47.63
74678;BME280;63207;56.328;43.994;2022-10-31T15:07:16;98943.31;;;20.76;47.63
74678;BME280;63207;56.328;43.994;2022-10-31T15:09:43;98954.63;;;20.76;47.72
74678;BME280;63207;56.328;43.994;2022-10-31T15:14:47;98944.94;;;20.77;47.54
74678;BME280;63207;56.328;43.994;2022-10-31T15:17:12;98959.72;;;20.78;47.65
74678;BME280;63207;56.328;43.994;2022-10-31T15:19:39;98960.69;;;20.77;47.65
74678;BME280;63207;56.328;43.994;2022-10-31T15:22:05;98964.16;;;20.77;47.56
74678;BME280;63207;56.328;43.994;2022-10-31T15:24:36;98964.97;;;20.78;47.58
74678;BME280;63207;56.328;43.994;2022-10-31T15:27:03;98970.22;;;20.78;47.54
74678;BME280;63207;56.328;43.994;2022-10-31T15:29:29;98972.84;;;20.78;47.56
74678;BME280;63207;56.328;43.994;2022-10-31T15:31:57;98978.09;;;20.78;47.59
74678;BME280;63207;56.328;43.994;2022-10-31T15:34:35;98971.84;;;20.79;47.57
74678;BME280;63207;56.328;43.994;2022-10-31T15:37:04;98973.84;;;20.77;47.55
74678;BME280;63207;56.328;43.994;2022-10-31T15:39:30;98971.03;;;20.78;47.60
74678;BME280;63207;56.328;43.994;2022-10-31T15:41:57;98965.94;;;20.77;47.54
74678;BME280;63207;56.328;43.994;2022-10-31T15:44:30;98972.03;;;20.77;47.55
74678;BME280;63207;56.328;43.994;2022-10-31T15:47:01;98989.44;;;20.78;47.58
74678;BME280;63207;56.328;43.994;2022-10-31T15:49:37;98984.16;;;20.78;47.43
74678;BME280;63207;56.328;43.994;2022-10-31T15:52:36;98988.63;;;20.78;47.64
74678;BME280;63207;56.328;43.994;2022-10-31T15:57:43;98991.41;;;20.76;47.53